createdAt,value
2019-01-09T00:04:39.400Z,97592.15
2019-01-09T00:14:49.123Z,97593.70
2019-01-09T00:19:55.031Z,97584.42
2019-01-09T00:25:00.849Z,97589.59
2019-01-09T00:30:07.335Z,97586.63
2019-01-09T00:35:13.271Z,97594.53
2019-01-09T00:40:19.938Z,97595.73
2019-01-09T00:45:25.921Z,97604.64
2019-01-09T00:50:32.259Z,97605.02
2019-01-09T00:55:38.580Z,97598.73
2019-01-09T01:00:44.747Z,97596.71
2019-01-09T01:06:36.216Z,97609.23
2019-01-09T01:12:42.229Z,97609.51
2019-01-09T01:18:25.952Z,97615.27
2019-01-09T01:24:28.054Z,97616.50
2019-01-09T01:30:17.352Z,97618.62
2019-01-09T01:35:59.489Z,97607.34
2019-01-09T01:41:18.752Z,97612.16
2019-01-09T01:47:15.121Z,97623.36
2019-01-09T01:52:44.907Z,97616.13
2019-01-09T01:58:17.761Z,97624.28
2019-01-09T02:04:37.683Z,97627.34
2019-01-09T02:10:10.999Z,97635.98
2019-01-09T02:15:54.695Z,97632.29
2019-01-09T02:21:30.215Z,97631.34
2019-01-09T02:26:50.956Z,97628.66
2019-01-09T02:32:28.221Z,97626.62
2019-01-09T02:37:34.020Z,97629.97
2019-01-09T02:42:39.958Z,97632.94
2019-01-09T02:47:45.766Z,97639.82
2019-01-09T02:52:51.539Z,97642.94
2019-01-09T02:57:57.817Z,97633.36
2019-01-09T03:03:04.125Z,97631.55
2019-01-09T03:08:10.406Z,97630.31
2019-01-09T03:13:16.946Z,97633.45
2019-01-09T03:18:22.941Z,97631.28
2019-01-09T03:23:30.276Z,97642.48
2019-01-09T03:28:36.641Z,97634.72
2019-01-09T03:33:42.485Z,97631.47
2019-01-09T03:38:48.691Z,97642.75
2019-01-09T03:43:57.938Z,97630.06
2019-01-09T03:49:03.833Z,97626.22
2019-01-09T03:54:09.632Z,97630.80
2019-01-09T03:59:15.433Z,97641.36
2019-01-09T04:04:22.106Z,97642.02
2019-01-09T04:09:27.898Z,97650.62
2019-01-09T04:14:33.680Z,97643.91
2019-01-09T04:19:40.889Z,97643.45
2019-01-09T04:24:46.595Z,97630.73
2019-01-09T04:29:52.379Z,97648.13
2019-01-09T04:34:58.706Z,97647.23
2019-01-09T04:40:06.726Z,97657.36
2019-01-09T04:45:12.824Z,97659.72
2019-01-09T04:50:18.599Z,97656.31
2019-01-09T04:55:24.586Z,97656.77
2019-01-09T05:00:30.514Z,97649.09
2019-01-09T05:05:36.312Z,97661.48
2019-01-09T05:10:43.206Z,97668.84
2019-01-09T05:15:49.355Z,97663.56
2019-01-09T05:20:55.056Z,97666.30
2019-01-09T05:26:00.946Z,97678.77
2019-01-09T05:31:08.059Z,97687.28
2019-01-09T05:36:14.506Z,97681.90
2019-01-09T05:41:22.530Z,97676.35
2019-01-09T05:46:30.448Z,97692.29
2019-01-09T05:51:36.208Z,97693.42
2019-01-09T05:56:42.884Z,97703.54
2019-01-09T06:01:49.094Z,97713.67
2019-01-09T06:06:56.253Z,97713.13
2019-01-09T06:12:06.305Z,97721.63
2019-01-09T06:17:13.059Z,97725.78
2019-01-09T06:22:21.680Z,97727.01
2019-01-09T06:27:27.551Z,97716.59
2019-01-09T06:32:33.705Z,97739.45
2019-01-09T06:37:39.880Z,97739.47
2019-01-09T06:42:45.937Z,97748.16
2019-01-09T06:47:52.432Z,97747.88
2019-01-09T06:53:02.020Z,97755.72
2019-01-09T06:58:07.752Z,97763.89
2019-01-09T07:03:16.082Z,97774.86
2019-01-09T07:08:22.048Z,97775.28
2019-01-09T07:13:27.877Z,97786.53
2019-01-09T07:18:35.186Z,97790.08
2019-01-09T07:23:41.036Z,97798.45
2019-01-09T07:28:47.002Z,97798.39
2019-01-09T07:38:57.894Z,97808.58
2019-01-09T07:44:03.679Z,97817.44
2019-01-09T07:49:10.202Z,97812.31
2019-01-09T07:54:16.547Z,97821.30
2019-01-09T07:59:22.340Z,97825.11
2019-01-09T08:04:32.447Z,97824.16
2019-01-09T08:09:38.565Z,97825.91
2019-01-09T08:14:44.430Z,97844.06
2019-01-09T08:19:50.284Z,97836.25
2019-01-09T08:24:56.247Z,97842.20
2019-01-09T08:30:03.417Z,97847.86
2019-01-09T08:35:10.523Z,97852.95
2019-01-09T08:40:17.805Z,97855.84
2019-01-09T08:45:23.666Z,97867.67
2019-01-09T08:50:30.150Z,97873.27
2019-01-09T08:55:36.722Z,97878.01
2019-01-09T09:00:42.798Z,97876.75
2019-01-09T09:05:48.669Z,97889.03
2019-01-09T09:10:54.537Z,97891.19
2019-01-09T09:16:00.545Z,97882.14
2019-01-09T09:21:07.654Z,97907.76
2019-01-09T09:26:13.580Z,97905.14
2019-01-09T09:31:19.417Z,97916.48
2019-01-09T09:36:26.772Z,97899.73
2019-01-09T09:41:33.124Z,97915.88
2019-01-09T09:46:39.087Z,97920.80
2019-01-09T09:51:47.108Z,97914.50
2019-01-09T09:56:53.035Z,97912.69
2019-01-09T10:01:58.805Z,97912.54
2019-01-09T10:07:06.150Z,97915.91
2019-01-09T10:12:12.765Z,97920.05
2019-01-09T10:17:18.639Z,97916.05
2019-01-09T10:22:24.457Z,97927.14
2019-01-09T10:27:30.695Z,97926.11
2019-01-09T10:32:36.703Z,97927.55
2019-01-09T10:37:45.879Z,97923.53
2019-01-09T10:42:51.695Z,97929.80
2019-01-09T10:47:57.704Z,97932.68
2019-01-09T10:53:03.588Z,97932.59
2019-01-09T10:58:12.272Z,97936.14
2019-01-09T11:04:48.995Z,97936.63
2019-01-09T11:09:54.829Z,97936.22
2019-01-09T11:15:00.731Z,97933.70
2019-01-09T11:20:11.091Z,97939.17
2019-01-09T11:25:22.548Z,97951.19
2019-01-09T11:30:28.381Z,97941.66
2019-01-09T11:35:34.406Z,97949.55
2019-01-09T11:40:40.310Z,97944.00
2019-01-09T11:45:46.260Z,97937.48
2019-01-09T11:50:52.068Z,97948.03
2019-01-09T11:55:58.429Z,97951.37
2019-01-09T12:01:06.676Z,97954.49
2019-01-09T12:06:12.983Z,97957.75
2019-01-09T12:11:19.073Z,97963.78
2019-01-09T12:16:25.585Z,97970.99
2019-01-09T12:21:31.399Z,97967.19
2019-01-09T12:26:37.189Z,97976.55
2019-01-09T12:36:47.972Z,97991.48
2019-01-09T12:41:53.702Z,97997.78
2019-01-09T12:46:59.486Z,98001.88
2019-01-09T12:52:05.549Z,98009.41
2019-01-09T12:57:11.712Z,98014.35
2019-01-09T13:02:17.901Z,98011.69
2019-01-09T13:07:24.116Z,98021.52
2019-01-09T13:12:29.914Z,98037.16
2019-01-09T13:17:35.695Z,98047.52
2019-01-09T13:27:46.502Z,98049.66
2019-01-09T13:32:52.530Z,98058.46
2019-01-09T13:37:58.299Z,98069.64
2019-01-09T13:43:05.597Z,98066.97
2019-01-09T13:48:12.289Z,98066.39
2019-01-09T13:53:17.213Z,98081.06
2019-01-09T13:58:22.980Z,98078.61
2019-01-09T14:03:30.455Z,98082.20
2019-01-09T14:08:36.280Z,98077.27
2019-01-09T14:13:42.278Z,98098.50
2019-01-09T14:18:55.218Z,98098.83
2019-01-09T14:23:56.642Z,98107.28
2019-01-09T14:29:03.741Z,98112.61
2019-01-09T14:34:13.258Z,98119.74
2019-01-09T14:39:19.103Z,98125.73
2019-01-09T14:44:25.036Z,98137.06
2019-01-09T14:49:30.980Z,98145.22
2019-01-09T14:54:36.764Z,98163.27
2019-01-09T14:59:42.724Z,98161.03
2019-01-09T15:04:48.933Z,98170.97
2019-01-09T15:09:56.768Z,98174.94
2019-01-09T15:15:06.849Z,98185.15
2019-01-09T15:20:15.099Z,98185.12
2019-01-09T15:25:22.849Z,98201.24
2019-01-09T15:30:32.275Z,98201.73
2019-01-09T15:35:42.470Z,98203.61
2019-01-09T15:40:48.283Z,98217.61
2019-01-09T15:45:54.336Z,98212.10
2019-01-09T15:51:00.590Z,98223.27
2019-01-09T15:56:06.872Z,98233.05
2019-01-09T16:01:13.488Z,98234.25
2019-01-09T16:06:19.848Z,98249.51
2019-01-09T16:11:28.256Z,98251.39
2019-01-09T16:21:44.029Z,98266.19
2019-01-09T16:26:49.844Z,98253.30
2019-01-09T16:31:56.354Z,98274.80
2019-01-09T16:37:02.697Z,98282.84
2019-01-09T16:42:09.085Z,98278.75
2019-01-09T16:47:14.898Z,98278.37
2019-01-09T16:52:24.253Z,98289.27
2019-01-09T16:57:30.127Z,98299.58
2019-01-09T17:02:36.780Z,98298.44
2019-01-09T17:07:42.957Z,98302.56
2019-01-09T17:12:48.775Z,98308.10
2019-01-09T17:17:55.195Z,98317.94
2019-01-09T17:23:02.970Z,98330.91
2019-01-09T17:28:09.542Z,98337.81
2019-01-09T17:33:15.726Z,98344.77
2019-01-09T17:38:24.398Z,98351.97
2019-01-09T17:43:30.504Z,98354.09
2019-01-09T17:48:36.624Z,98367.95
2019-01-09T17:53:45.079Z,98370.95
2019-01-09T17:58:51.649Z,98385.47
2019-01-09T18:03:58.686Z,98379.41
2019-01-09T18:09:09.064Z,98390.30
2019-01-09T18:14:18.595Z,98395.60
2019-01-09T18:19:25.128Z,98403.80
2019-01-09T18:24:32.635Z,98417.61
2019-01-09T18:29:38.600Z,98416.02
2019-01-09T18:35:17.220Z,98433.48
2019-01-09T18:41:10.669Z,98429.42
2019-01-09T18:46:50.528Z,98438.56
2019-01-09T18:52:10.827Z,98455.88
2019-01-09T18:57:20.475Z,98462.27
2019-01-09T19:02:29.364Z,98469.19
2019-01-09T19:07:36.146Z,98484.43
2019-01-09T19:17:45.417Z,98496.47
2019-01-09T19:22:53.748Z,98508.92
2019-01-09T19:27:59.854Z,98512.61
2019-01-09T19:33:06.204Z,98525.55
2019-01-09T19:38:12.192Z,98532.31
2019-01-09T19:43:22.837Z,98542.11
2019-01-09T19:48:30.243Z,98551.17
2019-01-09T19:53:43.231Z,98562.94
2019-01-09T19:58:51.312Z,98568.03
2019-01-09T20:09:02.432Z,98580.97
2019-01-09T20:14:10.196Z,98594.09
2019-01-09T20:19:17.585Z,98594.69
2019-01-09T20:24:23.235Z,98596.97
2019-01-09T20:29:29.267Z,98604.12
2019-01-09T20:34:35.153Z,98613.86
2019-01-09T20:39:43.525Z,98618.81
2019-01-09T20:44:50.019Z,98630.44
2019-01-09T20:49:58.040Z,98631.39
2019-01-09T20:55:04.867Z,98641.47
2019-01-09T21:00:19.200Z,98644.12
2019-01-09T21:05:30.226Z,98660.54
2019-01-09T21:10:36.514Z,98673.23
2019-01-09T21:15:45.727Z,98671.03
2019-01-09T21:20:53.197Z,98685.84
2019-01-09T21:26:05.242Z,98693.23
2019-01-09T21:31:12.282Z,98690.77
2019-01-09T21:36:18.152Z,98705.89
2019-01-09T21:41:24.025Z,98712.14
2019-01-09T21:46:35.135Z,98714.19
2019-01-09T21:51:40.911Z,98724.09
2019-01-09T21:56:46.815Z,98730.94
2019-01-09T22:01:52.747Z,98730.23
2019-01-09T22:07:01.420Z,98743.50
2019-01-09T22:17:27.128Z,98768.69
2019-01-09T22:22:32.967Z,98776.76
2019-01-09T22:27:38.803Z,98778.70
2019-01-09T22:32:47.853Z,98778.00
2019-01-09T22:37:53.741Z,98784.09
2019-01-09T22:43:00.401Z,98795.16
2019-01-09T22:48:06.461Z,98799.44
2019-01-09T22:53:12.305Z,98802.95
2019-01-09T22:58:18.129Z,98803.87
2019-01-09T23:03:24.080Z,98807.10
2019-01-09T23:08:30.193Z,98813.05
2019-01-09T23:13:36.077Z,98820.80
2019-01-09T23:18:41.926Z,98822.85
2019-01-09T23:23:48.530Z,98835.27
2019-01-09T23:28:54.381Z,98838.55
2019-01-09T23:34:00.383Z,98848.91
2019-01-09T23:39:11.089Z,98854.46
2019-01-09T23:44:17.629Z,98851.09
2019-01-09T23:49:23.753Z,98863.94
2019-01-09T23:54:40.596Z,98868.41
2019-01-09T23:59:46.632Z,98874.20
